sensor_id;sensor_type;location;lat;lon;timestamp;P1;durP1;ratioP1;P2;durP2;ratioP2
38940;SDS011;43236;47.208;7.518;2022-09-13T00:02:20;7.85;;;2.28;;
38940;SDS011;43236;47.208;7.518;2022-09-13T00:05:07;4.55;;;2.10;;
38940;SDS011;43236;47.208;7.518;2022-09-13T00:07:55;6.05;;;2.33;;
38940;SDS011;43236;47.208;7.518;2022-09-13T00:10:43;6.63;;;2.53;;
38940;SDS011;43236;47.208;7.518;2022-09-13T00:13:31;7.30;;;2.65;;
38940;SDS011;43236;47.208;7.518;2022-09-13T00:16:20;9.65;;;3.10;;
38940;SDS011;43236;47.208;7.518;2022-09-13T00:19:09;7.63;;;2.88;;
38940;SDS011;43236;47.208;7.518;2022-09-13T00:21:56;7.18;;;2.67;;
38940;SDS011;43236;47.208;7.518;2022-09-13T00:24:43;5.43;;;2.90;;
38940;SDS011;43236;47.208;7.518;2022-09-13T00:27:30;8.30;;;3.35;;
38940;SDS011;43236;47.208;7.518;2022-09-13T00:30:18;6.10;;;3.05;;
38940;SDS011;43236;47.208;7.518;2022-09-13T00:33:06;8.55;;;3.08;;
38940;SDS011;43236;47.208;7.518;2022-09-13T00:35:53;6.68;;;3.00;;
38940;SDS011;43236;47.208;7.518;2022-09-13T00:38:40;5.45;;;3.03;;
38940;SDS011;43236;47.208;7.518;2022-09-13T00:41:28;6.43;;;2.67;;
38940;SDS011;43236;47.208;7.518;2022-09-13T00:47:43;5.82;;;2.67;;
38940;SDS011;43236;47.208;7.518;2022-09-13T00:50:36;10.50;;;2.95;;
38940;SDS011;43236;47.208;7.518;2022-09-13T00:53:26;7.78;;;3.00;;
38940;SDS011;43236;47.208;7.518;2022-09-13T00:56:17;7.68;;;2.63;;
38940;SDS011;43236;47.208;7.518;2022-09-13T00:59:09;10.40;;;2.90;;
38940;SDS011;43236;47.208;7.518;2022-09-13T01:01:59;5.10;;;2.85;;
38940;SDS011;43236;47.208;7.518;2022-09-13T01:04:48;8.63;;;2.83;;
38940;SDS011;43236;47.208;7.518;2022-09-13T01:07:37;6.10;;;2.53;;
38940;SDS011;43236;47.208;7.518;2022-09-13T01:10:24;8.43;;;3.00;;
38940;SDS011;43236;47.208;7.518;2022-09-13T01:13:12;6.93;;;2.97;;
38940;SDS011;43236;47.208;7.518;2022-09-13T01:16:04;6.85;;;3.03;;
38940;SDS011;43236;47.208;7.518;2022-09-13T01:18:51;6.88;;;3.05;;
38940;SDS011;43236;47.208;7.518;2022-09-13T01:28:36;6.82;;;2.92;;
38940;SDS011;43236;47.208;7.518;2022-09-13T01:31:42;5.32;;;3.00;;
38940;SDS011;43236;47.208;7.518;2022-09-13T01:34:41;9.13;;;2.67;;
38940;SDS011;43236;47.208;7.518;2022-09-13T01:37:38;8.07;;;2.90;;
38940;SDS011;43236;47.208;7.518;2022-09-13T01:40:41;7.90;;;2.73;;
38940;SDS011;43236;47.208;7.518;2022-09-13T01:43:39;5.13;;;2.65;;
38940;SDS011;43236;47.208;7.518;2022-09-13T01:46:36;10.30;;;2.63;;
38940;SDS011;43236;47.208;7.518;2022-09-13T01:49:31;7.72;;;2.78;;
38940;SDS011;43236;47.208;7.518;2022-09-13T01:52:26;9.50;;;2.70;;
38940;SDS011;43236;47.208;7.518;2022-09-13T01:55:24;7.47;;;2.83;;
38940;SDS011;43236;47.208;7.518;2022-09-13T01:58:19;7.82;;;2.65;;
38940;SDS011;43236;47.208;7.518;2022-09-13T02:01:11;6.22;;;2.60;;
38940;SDS011;43236;47.208;7.518;2022-09-13T02:04:03;7.25;;;2.63;;
38940;SDS011;43236;47.208;7.518;2022-09-13T02:06:56;7.18;;;2.80;;
38940;SDS011;43236;47.208;7.518;2022-09-13T02:09:48;4.32;;;2.35;;
38940;SDS011;43236;47.208;7.518;2022-09-13T02:12:41;7.35;;;2.55;;
38940;SDS011;43236;47.208;7.518;2022-09-13T02:15:30;11.45;;;2.95;;
38940;SDS011;43236;47.208;7.518;2022-09-13T02:18:21;5.22;;;2.88;;
38940;SDS011;43236;47.208;7.518;2022-09-13T02:21:16;6.75;;;2.83;;
38940;SDS011;43236;47.208;7.518;2022-09-13T02:24:10;6.88;;;2.50;;
38940;SDS011;43236;47.208;7.518;2022-09-13T02:27:01;8.45;;;2.85;;
38940;SDS011;43236;47.208;7.518;2022-09-13T02:29:54;6.15;;;2.45;;
38940;SDS011;43236;47.208;7.518;2022-09-13T02:32:46;6.40;;;2.60;;
38940;SDS011;43236;47.208;7.518;2022-09-13T02:35:39;7.13;;;2.88;;
38940;SDS011;43236;47.208;7.518;2022-09-13T02:38:32;6.55;;;2.70;;
38940;SDS011;43236;47.208;7.518;2022-09-13T02:41:29;6.27;;;2.90;;
38940;SDS011;43236;47.208;7.518;2022-09-13T02:44:22;5.55;;;2.70;;
38940;SDS011;43236;47.208;7.518;2022-09-13T02:50:32;8.40;;;2.50;;
38940;SDS011;43236;47.208;7.518;2022-09-13T02:53:29;6.25;;;3.15;;
38940;SDS011;43236;47.208;7.518;2022-09-13T02:56:28;6.72;;;2.75;;
38940;SDS011;43236;47.208;7.518;2022-09-13T02:59:20;5.57;;;2.72;;
38940;SDS011;43236;47.208;7.518;2022-09-13T03:02:09;9.02;;;3.05;;
38940;SDS011;43236;47.208;7.518;2022-09-13T03:04:59;5.53;;;2.90;;
38940;SDS011;43236;47.208;7.518;2022-09-13T03:07:47;8.13;;;2.90;;
38940;SDS011;43236;47.208;7.518;2022-09-13T03:10:38;8.77;;;2.72;;
38940;SDS011;43236;47.208;7.518;2022-09-13T03:13:38;6.90;;;3.05;;
38940;SDS011;43236;47.208;7.518;2022-09-13T03:16:41;5.15;;;2.70;;
38940;SDS011;43236;47.208;7.518;2022-09-13T03:19:39;4.88;;;2.78;;
38940;SDS011;43236;47.208;7.518;2022-09-13T03:22:46;4.45;;;2.78;;
38940;SDS011;43236;47.208;7.518;2022-09-13T03:25:46;8.63;;;3.10;;
38940;SDS011;43236;47.208;7.518;2022-09-13T03:28:57;10.00;;;2.92;;
38940;SDS011;43236;47.208;7.518;2022-09-13T03:31:56;5.03;;;2.55;;
38940;SDS011;43236;47.208;7.518;2022-09-13T03:34:52;7.88;;;2.80;;
38940;SDS011;43236;47.208;7.518;2022-09-13T03:37:49;4.47;;;2.60;;
38940;SDS011;43236;47.208;7.518;2022-09-13T03:40:43;4.57;;;2.67;;
38940;SDS011;43236;47.208;7.518;2022-09-13T03:43:35;4.40;;;2.60;;
38940;SDS011;43236;47.208;7.518;2022-09-13T03:46:28;7.10;;;2.72;;
38940;SDS011;43236;47.208;7.518;2022-09-13T03:49:17;4.63;;;2.63;;
38940;SDS011;43236;47.208;7.518;2022-09-13T03:52:07;5.78;;;2.67;;
38940;SDS011;43236;47.208;7.518;2022-09-13T03:54:56;6.07;;;3.60;;
38940;SDS011;43236;47.208;7.518;2022-09-13T03:57:43;5.30;;;3.17;;
38940;SDS011;43236;47.208;7.518;2022-09-13T04:00:30;5.80;;;3.63;;
38940;SDS011;43236;47.208;7.518;2022-09-13T04:03:19;5.97;;;3.92;;
38940;SDS011;43236;47.208;7.518;2022-09-13T04:06:07;6.72;;;3.15;;
38940;SDS011;43236;47.208;7.518;2022-09-13T04:08:54;8.57;;;4.05;;
38940;SDS011;43236;47.208;7.518;2022-09-13T04:11:42;6.88;;;3.35;;
38940;SDS011;43236;47.208;7.518;2022-09-13T04:14:29;9.65;;;3.50;;
38940;SDS011;43236;47.208;7.518;2022-09-13T04:17:16;6.40;;;3.45;;
38940;SDS011;43236;47.208;7.518;2022-09-13T04:20:05;6.72;;;3.72;;
38940;SDS011;43236;47.208;7.518;2022-09-13T04:22:52;11.43;;;4.13;;
38940;SDS011;43236;47.208;7.518;2022-09-13T04:25:40;11.00;;;4.22;;
38940;SDS011;43236;47.208;7.518;2022-09-13T04:28:27;6.30;;;3.40;;
38940;SDS011;43236;47.208;7.518;2022-09-13T04:31:14;9.25;;;4.07;;
38940;SDS011;43236;47.208;7.518;2022-09-13T04:34:01;6.88;;;3.85;;
38940;SDS011;43236;47.208;7.518;2022-09-13T04:36:52;11.48;;;4.00;;
38940;SDS011;43236;47.208;7.518;2022-09-13T04:39:39;7.90;;;3.80;;
38940;SDS011;43236;47.208;7.518;2022-09-13T04:42:26;6.80;;;3.90;;
38940;SDS011;43236;47.208;7.518;2022-09-13T04:45:13;7.97;;;3.85;;
38940;SDS011;43236;47.208;7.518;2022-09-13T04:48:00;7.60;;;3.47;;
38940;SDS011;43236;47.208;7.518;2022-09-13T04:50:47;8.60;;;3.55;;
38940;SDS011;43236;47.208;7.518;2022-09-13T04:53:36;6.90;;;3.50;;
38940;SDS011;43236;47.208;7.518;2022-09-13T04:56:23;6.22;;;3.10;;
38940;SDS011;43236;47.208;7.518;2022-09-13T04:59:10;6.38;;;3.70;;
38940;SDS011;43236;47.208;7.518;2022-09-13T05:01:58;9.10;;;3.97;;
38940;SDS011;43236;47.208;7.518;2022-09-13T05:04:45;5.82;;;3.60;;
38940;SDS011;43236;47.208;7.518;2022-09-13T05:07:32;5.95;;;3.45;;
38940;SDS011;43236;47.208;7.518;2022-09-13T05:10:20;8.60;;;3.75;;
38940;SDS011;43236;47.208;7.518;2022-09-13T05:13:07;10.15;;;3.50;;
38940;SDS011;43236;47.208;7.518;2022-09-13T05:15:54;7.03;;;3.33;;
38940;SDS011;43236;47.208;7.518;2022-09-13T05:18:41;9.15;;;3.35;;
38940;SDS011;43236;47.208;7.518;2022-09-13T05:21:29;6.32;;;3.38;;
38940;SDS011;43236;47.208;7.518;2022-09-13T05:24:16;8.75;;;3.50;;
38940;SDS011;43236;47.208;7.518;2022-09-13T05:27:04;6.75;;;3.60;;
38940;SDS011;43236;47.208;7.518;2022-09-13T05:29:53;8.63;;;3.72;;
38940;SDS011;43236;47.208;7.518;2022-09-13T05:32:40;8.48;;;3.60;;
38940;SDS011;43236;47.208;7.518;2022-09-13T05:35:27;7.90;;;3.47;;
38940;SDS011;43236;47.208;7.518;2022-09-13T05:38:14;6.57;;;3.70;;
38940;SDS011;43236;47.208;7.518;2022-09-13T05:41:02;8.70;;;3.53;;
38940;SDS011;43236;47.208;7.518;2022-09-13T05:43:51;7.45;;;3.70;;
38940;SDS011;43236;47.208;7.518;2022-09-13T05:46:39;9.32;;;3.47;;
38940;SDS011;43236;47.208;7.518;2022-09-13T05:49:26;6.53;;;3.50;;
38940;SDS011;43236;47.208;7.518;2022-09-13T05:52:13;8.77;;;3.40;;
38940;SDS011;43236;47.208;7.518;2022-09-13T05:55:00;6.95;;;2.95;;
38940;SDS011;43236;47.208;7.518;2022-09-13T05:57:47;8.85;;;3.72;;
38940;SDS011;43236;47.208;7.518;2022-09-13T06:00:36;7.75;;;3.47;;
38940;SDS011;43236;47.208;7.518;2022-09-13T06:03:23;5.95;;;3.47;;
38940;SDS011;43236;47.208;7.518;2022-09-13T06:06:10;5.93;;;3.83;;
38940;SDS011;43236;47.208;7.518;2022-09-13T06:08:57;6.32;;;3.70;;
38940;SDS011;43236;47.208;7.518;2022-09-13T06:11:44;6.07;;;3.55;;
38940;SDS011;43236;47.208;7.518;2022-09-13T06:14:31;4.70;;;3.17;;
38940;SDS011;43236;47.208;7.518;2022-09-13T06:17:20;6.80;;;3.53;;
38940;SDS011;43236;47.208;7.518;2022-09-13T06:20:07;9.68;;;3.70;;
38940;SDS011;43236;47.208;7.518;2022-09-13T06:22:55;6.63;;;3.85;;
38940;SDS011;43236;47.208;7.518;2022-09-13T06:25:42;8.00;;;4.53;;
38940;SDS011;43236;47.208;7.518;2022-09-13T06:28:29;7.60;;;4.50;;
38940;SDS011;43236;47.208;7.518;2022-09-13T06:31:18;8.40;;;4.28;;
38940;SDS011;43236;47.208;7.518;2022-09-13T06:34:09;7.70;;;4.53;;
38940;SDS011;43236;47.208;7.518;2022-09-13T06:36:58;6.97;;;4.35;;
38940;SDS011;43236;47.208;7.518;2022-09-13T06:39:45;8.38;;;4.75;;
38940;SDS011;43236;47.208;7.518;2022-09-13T06:42:32;9.23;;;4.63;;
38940;SDS011;43236;47.208;7.518;2022-09-13T06:45:20;10.85;;;4.55;;
38940;SDS011;43236;47.208;7.518;2022-09-13T06:48:07;7.05;;;4.45;;
38940;SDS011;43236;47.208;7.518;2022-09-13T06:50:58;6.88;;;4.32;;
38940;SDS011;43236;47.208;7.518;2022-09-13T06:53:46;12.80;;;4.25;;
38940;SDS011;43236;47.208;7.518;2022-09-13T06:56:34;10.23;;;4.82;;
38940;SDS011;43236;47.208;7.518;2022-09-13T06:59:24;10.98;;;4.70;;
38940;SDS011;43236;47.208;7.518;2022-09-13T07:02:11;12.50;;;4.35;;
38940;SDS011;43236;47.208;7.518;2022-09-13T07:05:00;6.80;;;4.63;;
38940;SDS011;43236;47.208;7.518;2022-09-13T07:07:48;8.68;;;4.55;;
38940;SDS011;43236;47.208;7.518;2022-09-13T07:10:35;10.55;;;4.75;;
38940;SDS011;43236;47.208;7.518;2022-09-13T07:13:22;7.18;;;4.63;;
38940;SDS011;43236;47.208;7.518;2022-09-13T07:16:10;8.38;;;5.03;;
38940;SDS011;43236;47.208;7.518;2022-09-13T07:18:57;7.55;;;4.38;;
38940;SDS011;43236;47.208;7.518;2022-09-13T07:21:45;8.48;;;4.70;;
38940;SDS011;43236;47.208;7.518;2022-09-13T07:24:35;7.68;;;4.65;;
38940;SDS011;43236;47.208;7.518;2022-09-13T07:27:22;8.07;;;4.90;;
38940;SDS011;43236;47.208;7.518;2022-09-13T07:30:09;8.63;;;4.68;;
38940;SDS011;43236;47.208;7.518;2022-09-13T07:32:57;10.20;;;4.40;;
38940;SDS011;43236;47.208;7.518;2022-09-13T07:35:44;10.07;;;5.35;;
38940;SDS011;43236;47.208;7.518;2022-09-13T07:38:31;8.25;;;4.40;;
38940;SDS011;43236;47.208;7.518;2022-09-13T07:41:21;8.55;;;4.13;;
38940;SDS011;43236;47.208;7.518;2022-09-13T07:44:10;6.82;;;3.92;;
38940;SDS011;43236;47.208;7.518;2022-09-13T07:46:57;12.48;;;4.03;;
38940;SDS011;43236;47.208;7.518;2022-09-13T07:49:44;5.38;;;3.55;;
38940;SDS011;43236;47.208;7.518;2022-09-13T07:52:31;7.05;;;3.53;;
38940;SDS011;43236;47.208;7.518;2022-09-13T07:55:21;7.30;;;3.08;;
38940;SDS011;43236;47.208;7.518;2022-09-13T07:58:10;5.85;;;2.90;;
38940;SDS011;43236;47.208;7.518;2022-09-13T08:01:04;8.50;;;2.80;;
38940;SDS011;43236;47.208;7.518;2022-09-13T08:03:53;5.82;;;2.83;;
38940;SDS011;43236;47.208;7.518;2022-09-13T08:06:41;6.22;;;2.88;;
38940;SDS011;43236;47.208;7.518;2022-09-13T08:09:29;6.10;;;2.90;;
38940;SDS011;43236;47.208;7.518;2022-09-13T08:12:16;6.70;;;3.08;;
38940;SDS011;43236;47.208;7.518;2022-09-13T08:15:05;7.15;;;3.00;;
38940;SDS011;43236;47.208;7.518;2022-09-13T08:17:52;8.32;;;2.95;;
38940;SDS011;43236;47.208;7.518;2022-09-13T08:20:39;8.48;;;3.25;;
38940;SDS011;43236;47.208;7.518;2022-09-13T08:23:26;4.97;;;3.13;;
38940;SDS011;43236;47.208;7.518;2022-09-13T08:26:14;7.32;;;3.72;;
38940;SDS011;43236;47.208;7.518;2022-09-13T08:29:02;6.10;;;3.50;;
38940;SDS011;43236;47.208;7.518;2022-09-13T08:31:53;8.15;;;3.95;;
38940;SDS011;43236;47.208;7.518;2022-09-13T08:34:40;7.65;;;3.75;;
38940;SDS011;43236;47.208;7.518;2022-09-13T08:37:27;7.35;;;4.03;;
38940;SDS011;43236;47.208;7.518;2022-09-13T08:40:14;10.57;;;3.38;;
38940;SDS011;43236;47.208;7.518;2022-09-13T08:43:03;9.18;;;4.07;;
38940;SDS011;43236;47.208;7.518;2022-09-13T08:45:57;7.18;;;3.97;;
38940;SDS011;43236;47.208;7.518;2022-09-13T08:48:51;7.80;;;3.28;;
38940;SDS011;43236;47.208;7.518;2022-09-13T08:51:43;6.60;;;3.50;;
38940;SDS011;43236;47.208;7.518;2022-09-13T08:54:32;6.75;;;3.10;;
38940;SDS011;43236;47.208;7.518;2022-09-13T08:57:21;9.13;;;3.22;;
38940;SDS011;43236;47.208;7.518;2022-09-13T09:00:17;6.82;;;3.08;;
38940;SDS011;43236;47.208;7.518;2022-09-13T09:03:10;7.93;;;3.67;;
38940;SDS011;43236;47.208;7.518;2022-09-13T09:06:08;7.38;;;3.28;;
38940;SDS011;43236;47.208;7.518;2022-09-13T09:09:01;6.95;;;3.15;;
38940;SDS011;43236;47.208;7.518;2022-09-13T09:11:50;4.35;;;2.65;;
38940;SDS011;43236;47.208;7.518;2022-09-13T09:14:44;9.43;;;2.60;;
38940;SDS011;43236;47.208;7.518;2022-09-13T09:17:41;7.13;;;3.15;;
38940;SDS011;43236;47.208;7.518;2022-09-13T09:20:35;6.55;;;2.53;;
38940;SDS011;43236;47.208;7.518;2022-09-13T09:23:28;4.10;;;2.33;;
38940;SDS011;43236;47.208;7.518;2022-09-13T09:26:18;7.65;;;2.70;;
38940;SDS011;43236;47.208;7.518;2022-09-13T09:29:09;6.70;;;2.80;;
38940;SDS011;43236;47.208;7.518;2022-09-13T09:32:06;5.45;;;3.05;;
38940;SDS011;43236;47.208;7.518;2022-09-13T09:35:06;7.35;;;2.35;;
38940;SDS011;43236;47.208;7.518;2022-09-13T09:38:21;7.82;;;2.38;;
38940;SDS011;43236;47.208;7.518;2022-09-13T09:41:21;4.15;;;2.10;;
38940;SDS011;43236;47.208;7.518;2022-09-13T09:44:15;5.20;;;2.15;;
38940;SDS011;43236;47.208;7.518;2022-09-13T09:47:05;3.92;;;1.98;;
38940;SDS011;43236;47.208;7.518;2022-09-13T09:50:00;9.30;;;2.15;;
38940;SDS011;43236;47.208;7.518;2022-09-13T09:52:56;5.18;;;2.00;;
38940;SDS011;43236;47.208;7.518;2022-09-13T09:55:50;5.53;;;1.80;;
38940;SDS011;43236;47.208;7.518;2022-09-13T09:58:41;4.32;;;1.92;;
38940;SDS011;43236;47.208;7.518;2022-09-13T10:01:30;5.85;;;2.10;;
38940;SDS011;43236;47.208;7.518;2022-09-13T10:04:20;5.70;;;2.30;;
38940;SDS011;43236;47.208;7.518;2022-09-13T10:07:18;4.60;;;2.17;;
38940;SDS011;43236;47.208;7.518;2022-09-13T10:10:19;4.47;;;2.30;;
38940;SDS011;43236;47.208;7.518;2022-09-13T10:13:13;7.95;;;1.90;;
38940;SDS011;43236;47.208;7.518;2022-09-13T10:16:04;2.83;;;1.60;;
38940;SDS011;43236;47.208;7.518;2022-09-13T10:19:21;4.93;;;1.70;;
38940;SDS011;43236;47.208;7.518;2022-09-13T10:22:11;3.93;;;1.50;;
38940;SDS011;43236;47.208;7.518;2022-09-13T10:25:12;3.13;;;1.50;;
38940;SDS011;43236;47.208;7.518;2022-09-13T10:28:01;4.90;;;1.73;;
38940;SDS011;43236;47.208;7.518;2022-09-13T10:30:56;4.57;;;1.67;;
38940;SDS011;43236;47.208;7.518;2022-09-13T10:33:51;2.78;;;1.50;;
38940;SDS011;43236;47.208;7.518;2022-09-13T10:36:46;4.85;;;1.50;;
38940;SDS011;43236;47.208;7.518;2022-09-13T10:39:52;4.00;;;1.70;;
38940;SDS011;43236;47.208;7.518;2022-09-13T10:42:49;2.75;;;1.17;;
38940;SDS011;43236;47.208;7.518;2022-09-13T10:45:38;5.05;;;1.50;;
38940;SDS011;43236;47.208;7.518;2022-09-13T10:48:29;5.28;;;1.98;;
38940;SDS011;43236;47.208;7.518;2022-09-13T10:51:28;2.97;;;1.08;;
38940;SDS011;43236;47.208;7.518;2022-09-13T10:54:22;1.92;;;0.90;;
38940;SDS011;43236;47.208;7.518;2022-09-13T10:57:18;3.25;;;1.10;;
38940;SDS011;43236;47.208;7.518;2022-09-13T11:00:20;3.78;;;1.00;;
38940;SDS011;43236;47.208;7.518;2022-09-13T11:03:20;2.53;;;1.00;;
38940;SDS011;43236;47.208;7.518;2022-09-13T11:06:23;3.10;;;1.25;;
38940;SDS011;43236;47.208;7.518;2022-09-13T11:09:16;3.25;;;1.05;;
38940;SDS011;43236;47.208;7.518;2022-09-13T11:12:08;4.05;;;1.25;;
38940;SDS011;43236;47.208;7.518;2022-09-13T11:15:06;5.22;;;1.30;;
38940;SDS011;43236;47.208;7.518;2022-09-13T11:18:12;2.30;;;1.10;;
38940;SDS011;43236;47.208;7.518;2022-09-13T11:21:34;2.45;;;1.13;;
38940;SDS011;43236;47.208;7.518;2022-09-13T11:24:33;2.50;;;1.10;;
38940;SDS011;43236;47.208;7.518;2022-09-13T11:27:36;3.33;;;1.00;;
38940;SDS011;43236;47.208;7.518;2022-09-13T11:30:34;3.08;;;1.30;;
38940;SDS011;43236;47.208;7.518;2022-09-13T11:33:29;4.70;;;1.10;;
38940;SDS011;43236;47.208;7.518;2022-09-13T11:36:31;3.80;;;1.27;;
38940;SDS011;43236;47.208;7.518;2022-09-13T11:39:35;5.00;;;0.90;;
38940;SDS011;43236;47.208;7.518;2022-09-13T11:42:27;1.95;;;0.90;;
38940;SDS011;43236;47.208;7.518;2022-09-13T11:45:24;2.40;;;0.80;;
38940;SDS011;43236;47.208;7.518;2022-09-13T11:51:23;2.58;;;1.05;;
38940;SDS011;43236;47.208;7.518;2022-09-13T11:54:24;5.00;;;0.80;;
38940;SDS011;43236;47.208;7.518;2022-09-13T11:57:23;3.10;;;1.00;;
38940;SDS011;43236;47.208;7.518;2022-09-13T12:00:15;2.63;;;0.88;;
38940;SDS011;43236;47.208;7.518;2022-09-13T12:03:16;3.30;;;0.90;;
38940;SDS011;43236;47.208;7.518;2022-09-13T12:09:00;2.55;;;0.55;;
38940;SDS011;43236;47.208;7.518;2022-09-13T12:11:53;3.92;;;1.10;;
38940;SDS011;43236;47.208;7.518;2022-09-13T12:14:44;5.05;;;1.10;;
38940;SDS011;43236;47.208;7.518;2022-09-13T12:17:38;2.22;;;0.80;;
38940;SDS011;43236;47.208;7.518;2022-09-13T12:20:29;3.13;;;0.70;;
38940;SDS011;43236;47.208;7.518;2022-09-13T12:23:19;1.92;;;0.70;;
38940;SDS011;43236;47.208;7.518;2022-09-13T12:26:12;2.50;;;0.60;;
38940;SDS011;43236;47.208;7.518;2022-09-13T12:29:10;4.82;;;0.80;;
38940;SDS011;43236;47.208;7.518;2022-09-13T12:32:01;2.55;;;0.70;;
38940;SDS011;43236;47.208;7.518;2022-09-13T12:34:50;1.20;;;0.60;;
38940;SDS011;43236;47.208;7.518;2022-09-13T12:37:48;1.65;;;0.63;;
38940;SDS011;43236;47.208;7.518;2022-09-13T12:41:07;5.85;;;1.00;;
38940;SDS011;43236;47.208;7.518;2022-09-13T12:44:13;4.65;;;1.05;;
38940;SDS011;43236;47.208;7.518;2022-09-13T12:47:27;2.42;;;0.70;;
38940;SDS011;43236;47.208;7.518;2022-09-13T12:57:06;4.13;;;0.93;;
38940;SDS011;43236;47.208;7.518;2022-09-13T13:00:16;3.00;;;1.00;;
38940;SDS011;43236;47.208;7.518;2022-09-13T13:03:11;5.68;;;1.10;;
38940;SDS011;43236;47.208;7.518;2022-09-13T13:06:10;3.35;;;0.95;;
38940;SDS011;43236;47.208;7.518;2022-09-13T13:09:19;4.50;;;0.80;;
38940;SDS011;43236;47.208;7.518;2022-09-13T13:12:09;2.60;;;0.80;;
38940;SDS011;43236;47.208;7.518;2022-09-13T13:14:57;5.63;;;0.98;;
38940;SDS011;43236;47.208;7.518;2022-09-13T13:17:47;2.60;;;0.85;;
38940;SDS011;43236;47.208;7.518;2022-09-13T13:20:46;2.13;;;0.90;;
38940;SDS011;43236;47.208;7.518;2022-09-13T13:33:46;2.70;;;1.13;;
38940;SDS011;43236;47.208;7.518;2022-09-13T13:36:42;4.20;;;1.20;;
38940;SDS011;43236;47.208;7.518;2022-09-13T13:39:36;5.18;;;1.40;;
38940;SDS011;43236;47.208;7.518;2022-09-13T13:42:25;9.57;;;1.30;;
38940;SDS011;43236;47.208;7.518;2022-09-13T13:45:16;6.95;;;1.85;;
38940;SDS011;43236;47.208;7.518;2022-09-13T13:48:11;3.53;;;1.40;;
38940;SDS011;43236;47.208;7.518;2022-09-13T13:51:15;3.83;;;1.08;;
38940;SDS011;43236;47.208;7.518;2022-09-13T13:54:27;11.25;;;2.03;;
38940;SDS011;43236;47.208;7.518;2022-09-13T13:57:22;4.28;;;1.50;;
38940;SDS011;43236;47.208;7.518;2022-09-13T14:00:13;3.50;;;1.27;;
38940;SDS011;43236;47.208;7.518;2022-09-13T14:03:07;3.58;;;1.08;;
38940;SDS011;43236;47.208;7.518;2022-09-13T14:06:05;4.97;;;1.80;;
38940;SDS011;43236;47.208;7.518;2022-09-13T14:09:03;4.75;;;1.13;;
38940;SDS011;43236;47.208;7.518;2022-09-13T14:11:59;3.25;;;1.15;;
38940;SDS011;43236;47.208;7.518;2022-09-13T14:15:09;5.68;;;1.10;;
38940;SDS011;43236;47.208;7.518;2022-09-13T14:18:10;3.83;;;1.02;;
38940;SDS011;43236;47.208;7.518;2022-09-13T14:21:17;2.33;;;1.10;;
38940;SDS011;43236;47.208;7.518;2022-09-13T14:24:16;3.15;;;0.90;;
38940;SDS011;43236;47.208;7.518;2022-09-13T14:27:04;5.40;;;1.10;;
38940;SDS011;43236;47.208;7.518;2022-09-13T14:29:53;6.93;;;0.80;;
38940;SDS011;43236;47.208;7.518;2022-09-13T14:32:42;1.90;;;1.00;;
38940;SDS011;43236;47.208;7.518;2022-09-13T14:35:32;4.05;;;0.98;;
38940;SDS011;43236;47.208;7.518;2022-09-13T14:38:21;1.45;;;0.80;;
38940;SDS011;43236;47.208;7.518;2022-09-13T14:41:17;6.18;;;0.90;;
38940;SDS011;43236;47.208;7.518;2022-09-13T14:44:16;5.38;;;1.00;;
38940;SDS011;43236;47.208;7.518;2022-09-13T14:47:06;1.33;;;0.75;;
38940;SDS011;43236;47.208;7.518;2022-09-13T14:50:02;3.15;;;0.80;;
38940;SDS011;43236;47.208;7.518;2022-09-13T14:52:53;6.63;;;1.02;;
38940;SDS011;43236;47.208;7.518;2022-09-13T14:55:42;5.35;;;1.10;;
38940;SDS011;43236;47.208;7.518;2022-09-13T14:58:37;4.20;;;0.80;;
38940;SDS011;43236;47.208;7.518;2022-09-13T15:01:30;4.22;;;0.95;;
38940;SDS011;43236;47.208;7.518;2022-09-13T15:04:18;2.70;;;1.10;;
38940;SDS011;43236;47.208;7.518;2022-09-13T15:07:08;2.35;;;1.05;;
38940;SDS011;43236;47.208;7.518;2022-09-13T15:10:07;1.65;;;0.80;;
38940;SDS011;43236;47.208;7.518;2022-09-13T15:13:08;4.22;;;0.90;;
38940;SDS011;43236;47.208;7.518;2022-09-13T15:15:57;2.40;;;1.13;;
38940;SDS011;43236;47.208;7.518;2022-09-13T15:18:44;4.03;;;1.20;;
38940;SDS011;43236;47.208;7.518;2022-09-13T15:21:31;3.63;;;1.05;;
38940;SDS011;43236;47.208;7.518;2022-09-13T15:24:23;3.13;;;0.80;;
38940;SDS011;43236;47.208;7.518;2022-09-13T15:27:20;1.73;;;1.00;;
38940;SDS011;43236;47.208;7.518;2022-09-13T15:30:18;3.88;;;0.98;;
38940;SDS011;43236;47.208;7.518;2022-09-13T15:33:18;1.58;;;0.88;;
38940;SDS011;43236;47.208;7.518;2022-09-13T15:36:14;3.03;;;1.10;;
38940;SDS011;43236;47.208;7.518;2022-09-13T15:39:14;5.25;;;1.27;;
38940;SDS011;43236;47.208;7.518;2022-09-13T15:42:02;1.58;;;0.90;;
38940;SDS011;43236;47.208;7.518;2022-09-13T15:44:50;3.40;;;1.08;;
38940;SDS011;43236;47.208;7.518;2022-09-13T15:47:37;5.22;;;1.17;;
38940;SDS011;43236;47.208;7.518;2022-09-13T15:50:25;5.15;;;1.20;;
38940;SDS011;43236;47.208;7.518;2022-09-13T15:53:15;3.58;;;1.42;;
38940;SDS011;43236;47.208;7.518;2022-09-13T15:56:02;3.78;;;1.10;;
38940;SDS011;43236;47.208;7.518;2022-09-13T15:58:51;3.78;;;1.10;;
38940;SDS011;43236;47.208;7.518;2022-09-13T16:01:38;6.45;;;1.48;;
38940;SDS011;43236;47.208;7.518;2022-09-13T16:04:25;4.55;;;1.20;;
38940;SDS011;43236;47.208;7.518;2022-09-13T16:07:14;3.00;;;1.15;;
38940;SDS011;43236;47.208;7.518;2022-09-13T16:10:01;2.53;;;1.13;;
38940;SDS011;43236;47.208;7.518;2022-09-13T16:12:48;4.13;;;1.20;;
38940;SDS011;43236;47.208;7.518;2022-09-13T16:15:36;4.15;;;1.20;;
38940;SDS011;43236;47.208;7.518;2022-09-13T16:18:23;6.90;;;1.20;;
38940;SDS011;43236;47.208;7.518;2022-09-13T16:21:10;5.75;;;1.52;;
38940;SDS011;43236;47.208;7.518;2022-09-13T16:23:58;3.85;;;1.17;;
38940;SDS011;43236;47.208;7.518;2022-09-13T16:26:45;6.00;;;1.65;;
38940;SDS011;43236;47.208;7.518;2022-09-13T16:29:32;4.53;;;1.60;;
38940;SDS011;43236;47.208;7.518;2022-09-13T16:32:19;3.35;;;1.05;;
38940;SDS011;43236;47.208;7.518;2022-09-13T16:35:07;4.05;;;1.33;;
38940;SDS011;43236;47.208;7.518;2022-09-13T16:37:55;6.07;;;1.20;;
38940;SDS011;43236;47.208;7.518;2022-09-13T16:40:44;5.43;;;1.35;;
38940;SDS011;43236;47.208;7.518;2022-09-13T16:43:32;3.78;;;1.48;;
38940;SDS011;43236;47.208;7.518;2022-09-13T16:46:19;3.38;;;1.48;;
38940;SDS011;43236;47.208;7.518;2022-09-13T16:49:06;2.83;;;1.40;;
38940;SDS011;43236;47.208;7.518;2022-09-13T16:51:54;6.22;;;1.75;;
38940;SDS011;43236;47.208;7.518;2022-09-13T16:54:43;4.50;;;1.40;;
38940;SDS011;43236;47.208;7.518;2022-09-13T16:57:35;6.57;;;1.60;;
38940;SDS011;43236;47.208;7.518;2022-09-13T17:00:22;6.38;;;1.67;;
38940;SDS011;43236;47.208;7.518;2022-09-13T17:03:12;3.58;;;1.40;;
38940;SDS011;43236;47.208;7.518;2022-09-13T17:06:00;4.80;;;1.60;;
38940;SDS011;43236;47.208;7.518;2022-09-13T17:08:49;3.95;;;1.45;;
38940;SDS011;43236;47.208;7.518;2022-09-13T17:11:38;5.28;;;1.77;;
38940;SDS011;43236;47.208;7.518;2022-09-13T17:14:28;8.27;;;1.88;;
38940;SDS011;43236;47.208;7.518;2022-09-13T17:17:15;4.57;;;1.50;;
38940;SDS011;43236;47.208;7.518;2022-09-13T17:20:04;2.55;;;1.50;;
38940;SDS011;43236;47.208;7.518;2022-09-13T17:22:53;3.22;;;1.55;;
38940;SDS011;43236;47.208;7.518;2022-09-13T17:25:40;3.72;;;1.63;;
38940;SDS011;43236;47.208;7.518;2022-09-13T17:28:30;14.77;;;2.08;;
38940;SDS011;43236;47.208;7.518;2022-09-13T17:31:21;3.00;;;1.60;;
38940;SDS011;43236;47.208;7.518;2022-09-13T17:34:08;5.97;;;1.90;;
38940;SDS011;43236;47.208;7.518;2022-09-13T17:36:55;4.22;;;1.92;;
38940;SDS011;43236;47.208;7.518;2022-09-13T17:39:42;7.90;;;1.60;;
38940;SDS011;43236;47.208;7.518;2022-09-13T17:42:30;10.90;;;2.10;;
38940;SDS011;43236;47.208;7.518;2022-09-13T17:45:17;6.18;;;2.08;;
38940;SDS011;43236;47.208;7.518;2022-09-13T17:48:06;8.68;;;1.83;;
38940;SDS011;43236;47.208;7.518;2022-09-13T17:50:58;8.35;;;1.73;;
38940;SDS011;43236;47.208;7.518;2022-09-13T17:53:46;4.47;;;1.67;;